createdAt,value
2023-04-09T00:00:04.331Z,9.06
2023-04-09T00:01:04.475Z,9.06
2023-04-09T00:02:04.518Z,9.25
2023-04-09T00:03:04.442Z,9.19
2023-04-09T00:04:04.575Z,9.06
2023-04-09T00:05:03.607Z,9.12
2023-04-09T00:06:03.620Z,9.12
2023-04-09T00:07:03.594Z,9.19
2023-04-09T00:08:03.757Z,9.19
2023-04-09T00:09:04.181Z,9.25
2023-04-09T00:10:04.316Z,9.25
2023-04-09T00:11:03.520Z,9.25
2023-04-09T00:12:03.692Z,9.25
2023-04-09T00:13:04.577Z,9.25
2023-04-09T00:14:03.774Z,9.25
2023-04-09T00:15:03.683Z,9.19
2023-04-09T00:16:03.687Z,9.25
2023-04-09T00:17:03.760Z,9.25
2023-04-09T00:18:03.947Z,9.25
2023-04-09T00:19:03.938Z,9.25
2023-04-09T00:20:03.906Z,9.31
2023-04-09T00:21:03.920Z,9.31
2023-04-09T00:22:03.987Z,9.31
2023-04-09T00:23:04.076Z,9.25
2023-04-09T00:24:04.397Z,9.25
2023-04-09T00:25:04.406Z,9.19
2023-04-09T00:26:03.515Z,9.12
2023-04-09T00:27:03.507Z,9.06
2023-04-09T00:28:03.663Z,9.00
2023-04-09T00:29:03.675Z,8.88
2023-04-09T00:30:03.686Z,8.88
2023-04-09T00:31:03.740Z,8.81
2023-04-09T00:32:03.837Z,8.88
2023-04-09T00:33:03.793Z,8.75
2023-04-09T00:34:03.770Z,8.75
2023-04-09T00:35:03.839Z,8.88
2023-04-09T00:36:03.996Z,8.81
2023-04-09T00:37:03.994Z,8.81
2023-04-09T00:38:04.082Z,8.81
2023-04-09T00:39:04.006Z,8.69
2023-04-09T00:40:04.246Z,8.62
2023-04-09T00:41:04.237Z,8.62
2023-04-09T00:42:04.183Z,8.62
2023-04-09T00:43:04.251Z,8.62
2023-04-09T00:44:04.232Z,8.62
2023-04-09T00:45:04.229Z,8.69
2023-04-09T00:46:04.403Z,8.56
2023-04-09T00:47:04.310Z,8.56
2023-04-09T00:48:04.396Z,8.56
2023-04-09T00:49:04.466Z,8.56
2023-04-09T00:50:04.464Z,8.56
2023-04-09T00:51:03.605Z,8.62
2023-04-09T00:52:03.597Z,8.62
2023-04-09T00:53:03.676Z,8.75
2023-04-09T00:54:03.594Z,8.75
2023-04-09T00:55:03.598Z,8.75
2023-04-09T00:56:03.605Z,8.75
2023-04-09T00:57:03.676Z,8.75
2023-04-09T00:58:03.683Z,8.69
2023-04-09T00:59:03.756Z,8.62
2023-04-09T01:00:03.832Z,8.69
2023-04-09T01:01:03.917Z,8.69
2023-04-09T01:02:04.062Z,8.75
2023-04-09T01:03:04.064Z,8.62
2023-04-09T01:04:04.010Z,8.56
2023-04-09T01:05:04.024Z,8.56
2023-04-09T01:06:03.981Z,8.56
2023-04-09T01:07:04.147Z,8.50
2023-04-09T01:08:04.322Z,8.50
2023-04-09T01:09:04.321Z,8.50
2023-04-09T01:10:04.254Z,8.56
2023-04-09T01:11:04.221Z,8.50
2023-04-09T01:12:04.144Z,8.56
2023-04-09T01:13:03.985Z,8.50
2023-04-09T01:14:04.051Z,8.62
2023-04-09T01:15:04.059Z,8.62
2023-04-09T01:16:04.226Z,8.62
2023-04-09T01:17:04.236Z,8.69
2023-04-09T01:18:04.255Z,8.62
2023-04-09T01:19:04.298Z,8.56
2023-04-09T01:20:04.478Z,8.56
2023-04-09T01:21:03.547Z,8.31
2023-04-09T01:22:03.514Z,8.25
2023-04-09T01:23:03.594Z,8.19
2023-04-09T01:24:03.581Z,8.12
2023-04-09T01:25:03.677Z,8.00
2023-04-09T01:26:03.591Z,8.06
2023-04-09T01:27:03.850Z,8.00
2023-04-09T01:28:03.742Z,8.06
2023-04-09T01:29:03.757Z,8.12
2023-04-09T01:30:03.828Z,8.12
2023-04-09T01:31:03.907Z,8.06
2023-04-09T01:32:03.969Z,8.06
2023-04-09T01:33:03.985Z,8.12
2023-04-09T01:34:03.986Z,8.00
2023-04-09T01:35:03.992Z,8.00
2023-04-09T01:36:04.104Z,7.94
2023-04-09T01:37:04.080Z,7.94
2023-04-09T01:38:04.099Z,7.94
2023-04-09T01:39:04.144Z,7.88
2023-04-09T01:40:04.145Z,7.81
2023-04-09T01:41:04.152Z,7.81
2023-04-09T01:42:04.159Z,7.75
2023-04-09T01:43:04.140Z,7.75
2023-04-09T01:44:04.155Z,7.75
2023-04-09T01:45:04.305Z,7.75
2023-04-09T01:46:04.293Z,7.62
2023-04-09T01:47:04.391Z,7.50
2023-04-09T01:48:04.233Z,7.44
2023-04-09T01:49:04.225Z,7.31
2023-04-09T01:50:04.388Z,7.44
2023-04-09T01:51:04.382Z,7.38
2023-04-09T01:52:03.604Z,7.38
2023-04-09T01:53:03.514Z,7.38
2023-04-09T01:54:03.510Z,7.38
2023-04-09T01:55:03.509Z,7.44
2023-04-09T01:56:03.598Z,7.44
2023-04-09T01:57:04.477Z,7.44
2023-04-09T01:58:03.543Z,7.38
2023-04-09T01:59:03.592Z,7.38
2023-04-09T02:00:03.505Z,7.38
2023-04-09T02:01:03.547Z,7.31
2023-04-09T02:02:03.554Z,7.31
2023-04-09T02:03:03.854Z,7.31
2023-04-09T02:04:03.835Z,7.31
2023-04-09T02:05:03.667Z,7.31
2023-04-09T02:06:03.623Z,7.25
2023-04-09T02:07:03.665Z,7.25
2023-04-09T02:08:03.684Z,7.25
2023-04-09T02:09:03.673Z,7.19
2023-04-09T02:10:03.752Z,7.06
2023-04-09T02:11:03.745Z,7.00
2023-04-09T02:12:03.753Z,6.88
2023-04-09T02:13:03.899Z,6.75
2023-04-09T02:14:03.891Z,6.81
2023-04-09T02:15:03.901Z,6.75
2023-04-09T02:16:03.903Z,6.75
2023-04-09T02:17:03.918Z,6.88
2023-04-09T02:18:03.940Z,6.94
2023-04-09T02:19:03.903Z,7.00
2023-04-09T02:20:03.908Z,7.00
2023-04-09T02:21:04.001Z,6.88
2023-04-09T02:22:03.904Z,6.88
2023-04-09T02:23:03.904Z,6.69
2023-04-09T02:24:04.000Z,6.69
2023-04-09T02:25:03.994Z,6.62
2023-04-09T02:26:03.913Z,6.62
2023-04-09T02:27:04.220Z,6.69
2023-04-09T02:28:04.225Z,6.62
2023-04-09T02:29:04.330Z,6.62
2023-04-09T02:30:04.392Z,6.56
2023-04-09T02:31:04.411Z,6.62
2023-04-09T02:32:03.529Z,6.62
2023-04-09T02:33:03.445Z,6.56
2023-04-09T02:34:03.591Z,6.62
2023-04-09T02:35:03.506Z,6.62
2023-04-09T02:36:03.596Z,6.62
2023-04-09T02:37:03.666Z,6.62
2023-04-09T02:38:03.591Z,6.62
2023-04-09T02:39:03.602Z,6.75
2023-04-09T02:40:03.501Z,6.75
2023-04-09T02:41:03.812Z,6.75
2023-04-09T02:42:03.688Z,6.75
2023-04-09T02:43:03.599Z,6.75
2023-04-09T02:44:03.591Z,6.75
2023-04-09T02:45:03.669Z,6.75
2023-04-09T02:46:03.873Z,6.75
2023-04-09T02:47:03.743Z,6.75
2023-04-09T02:48:03.827Z,6.75
2023-04-09T02:49:03.829Z,6.69
2023-04-09T02:50:03.749Z,6.69
2023-04-09T02:51:03.908Z,6.62
2023-04-09T02:52:03.913Z,6.69
2023-04-09T02:53:03.825Z,6.62
2023-04-09T02:54:03.832Z,6.62
2023-04-09T02:55:03.900Z,6.62
2023-04-09T02:56:03.990Z,6.62
2023-04-09T02:57:04.078Z,6.56
2023-04-09T02:58:04.065Z,6.56
2023-04-09T02:59:04.061Z,6.44
2023-04-09T03:00:04.144Z,6.44
2023-04-09T03:01:04.145Z,6.44
2023-04-09T03:02:04.394Z,6.31
2023-04-09T03:03:04.463Z,6.38
2023-04-09T03:04:04.396Z,6.25
2023-04-09T03:05:04.315Z,6.31
2023-04-09T03:06:03.598Z,6.50
2023-04-09T03:07:03.514Z,6.75
2023-04-09T03:08:03.699Z,7.00
2023-04-09T03:09:03.790Z,6.94
2023-04-09T03:10:03.675Z,7.00
2023-04-09T03:11:03.588Z,7.00
2023-04-09T03:12:03.593Z,7.00
2023-04-09T03:13:03.674Z,7.00
2023-04-09T03:14:03.764Z,6.81
2023-04-09T03:15:03.662Z,6.75
2023-04-09T03:16:03.823Z,6.56
2023-04-09T03:17:03.926Z,6.50
2023-04-09T03:18:03.950Z,6.44
2023-04-09T03:19:03.920Z,6.38
2023-04-09T03:20:03.843Z,6.25
2023-04-09T03:21:03.916Z,6.19
2023-04-09T03:22:03.915Z,6.19
2023-04-09T03:23:04.005Z,6.19
2023-04-09T03:24:03.672Z,6.19
2023-04-09T03:25:03.748Z,6.25
2023-04-09T03:26:03.755Z,6.31
2023-04-09T03:27:03.752Z,6.56
2023-04-09T03:28:03.741Z,6.56
2023-04-09T03:29:03.991Z,6.50
2023-04-09T03:30:03.918Z,6.38
2023-04-09T03:31:04.042Z,6.31
2023-04-09T03:32:03.912Z,6.12
2023-04-09T03:33:04.060Z,6.00
2023-04-09T03:34:04.020Z,5.94
2023-04-09T03:35:04.167Z,5.88
2023-04-09T03:36:04.094Z,5.88
2023-04-09T03:37:03.992Z,5.81
2023-04-09T03:38:03.968Z,5.81
2023-04-09T03:39:03.902Z,5.81
2023-04-09T03:40:04.025Z,5.81
2023-04-09T03:41:03.907Z,5.75
2023-04-09T03:42:03.902Z,5.75
2023-04-09T03:43:04.000Z,5.75
2023-04-09T03:44:03.998Z,5.69
2023-04-09T03:45:04.074Z,5.62
2023-04-09T03:46:04.236Z,5.62
2023-04-09T03:47:04.243Z,5.69
2023-04-09T03:48:04.279Z,5.62
2023-04-09T03:49:04.158Z,5.62
2023-04-09T03:50:04.235Z,5.56
2023-04-09T03:51:04.315Z,5.56
2023-04-09T03:52:04.330Z,5.62
2023-04-09T03:53:03.587Z,5.69
2023-04-09T03:54:03.599Z,5.62
2023-04-09T03:55:03.616Z,5.62
2023-04-09T03:56:03.625Z,5.56
2023-04-09T03:57:03.595Z,5.56
2023-04-09T03:58:03.662Z,5.56
2023-04-09T03:59:03.667Z,5.56
2023-04-09T04:00:03.682Z,5.56
2023-04-09T04:01:03.824Z,5.50
2023-04-09T04:02:03.955Z,5.50
2023-04-09T04:03:03.951Z,5.50
2023-04-09T04:04:03.967Z,5.50
2023-04-09T04:05:03.905Z,5.44
2023-04-09T04:06:04.070Z,5.38
2023-04-09T04:07:04.029Z,5.38
2023-04-09T04:08:04.065Z,5.38
2023-04-09T04:09:04.061Z,5.31
2023-04-09T04:10:04.145Z,5.25
2023-04-09T04:11:04.225Z,5.25
2023-04-09T04:12:04.186Z,5.19
2023-04-09T04:13:04.195Z,5.19
2023-04-09T04:14:04.182Z,5.19
2023-04-09T04:15:04.158Z,5.19
2023-04-09T04:16:04.156Z,5.19
2023-04-09T04:17:04.149Z,5.12
2023-04-09T04:18:04.236Z,5.12
2023-04-09T04:19:04.220Z,5.19
2023-04-09T04:20:04.158Z,5.38
2023-04-09T04:21:04.309Z,5.44
2023-04-09T04:22:04.316Z,5.38
2023-04-09T04:23:04.314Z,5.31
2023-04-09T04:24:04.315Z,5.31
2023-04-09T04:25:04.718Z,5.25
2023-04-09T04:26:03.590Z,5.25
2023-04-09T04:27:03.664Z,5.25
2023-04-09T04:28:03.748Z,5.19
2023-04-09T04:29:03.739Z,5.19
2023-04-09T04:30:03.830Z,5.12
2023-04-09T04:31:03.841Z,5.25
2023-04-09T04:32:04.007Z,5.38
2023-04-09T04:33:03.833Z,5.56
2023-04-09T04:34:03.918Z,5.88
2023-04-09T04:35:03.866Z,6.12
2023-04-09T04:36:03.918Z,6.19
2023-04-09T04:37:03.989Z,6.25
2023-04-09T04:38:04.083Z,6.31
2023-04-09T04:39:04.160Z,6.25
2023-04-09T04:40:04.071Z,6.31
2023-04-09T04:41:04.299Z,6.31
2023-04-09T04:42:04.483Z,6.19
2023-04-09T04:43:04.481Z,6.12
2023-04-09T04:44:04.481Z,6.19
2023-04-09T04:45:03.517Z,6.25
2023-04-09T04:46:03.636Z,6.25
2023-04-09T04:47:04.073Z,6.12
2023-04-09T04:48:03.700Z,6.06
2023-04-09T04:49:03.833Z,5.94
2023-04-09T04:50:03.739Z,5.88
2023-04-09T04:51:03.740Z,6.06
2023-04-09T04:52:03.824Z,6.12
2023-04-09T04:53:03.919Z,6.25
2023-04-09T04:54:03.832Z,6.44
2023-04-09T04:55:03.917Z,6.56
2023-04-09T04:56:03.905Z,6.56
2023-04-09T04:57:04.086Z,6.56
2023-04-09T04:58:03.986Z,6.50
2023-04-09T04:59:04.000Z,6.56
2023-04-09T05:00:04.071Z,6.50
2023-04-09T05:01:04.051Z,6.31
2023-04-09T05:02:04.070Z,6.25
2023-04-09T05:03:04.095Z,6.25
2023-04-09T05:04:04.191Z,6.62
2023-04-09T05:05:04.157Z,6.75
2023-04-09T05:06:04.061Z,7.00
2023-04-09T05:07:04.070Z,7.19
2023-04-09T05:08:03.996Z,7.12
2023-04-09T05:09:04.240Z,6.94
2023-04-09T05:10:04.186Z,6.50
2023-04-09T05:11:04.220Z,6.12
2023-04-09T05:12:05.277Z,6.25
2023-04-09T05:13:04.476Z,6.38
2023-04-09T05:14:03.593Z,6.56
2023-04-09T05:15:03.520Z,6.75
2023-04-09T05:16:03.589Z,6.81
2023-04-09T05:17:03.686Z,6.69
2023-04-09T05:18:03.669Z,6.62
2023-04-09T05:19:03.582Z,6.56
2023-04-09T05:20:03.666Z,6.69
2023-04-09T05:21:03.772Z,6.88
2023-04-09T05:22:03.824Z,7.12
2023-04-09T05:23:03.840Z,7.50
2023-04-09T05:24:04.014Z,7.50
2023-04-09T05:25:03.904Z,7.88
2023-04-09T05:26:03.933Z,7.94
2023-04-09T05:27:04.071Z,7.69
2023-04-09T05:28:04.151Z,7.38
2023-04-09T05:29:04.137Z,7.19
2023-04-09T05:30:04.231Z,7.25
2023-04-09T05:31:04.182Z,7.56
2023-04-09T05:32:04.161Z,8.06
2023-04-09T05:33:04.163Z,8.19
2023-04-09T05:34:04.264Z,8.38
2023-04-09T05:35:04.227Z,8.50
2023-04-09T05:36:04.269Z,8.62
2023-04-09T05:37:04.304Z,8.69
2023-04-09T05:38:04.493Z,8.81
2023-04-09T05:39:03.514Z,9.00
2023-04-09T05:40:03.604Z,9.31
2023-04-09T05:41:03.682Z,9.44
2023-04-09T05:42:03.602Z,9.62
2023-04-09T05:43:03.586Z,9.75
2023-04-09T05:44:03.669Z,9.81
2023-04-09T05:45:03.675Z,9.81
2023-04-09T05:46:03.800Z,9.62
2023-04-09T05:47:03.938Z,9.44
2023-04-09T05:48:03.960Z,9.44
2023-04-09T05:49:03.988Z,9.38
2023-04-09T05:50:03.779Z,9.12
2023-04-09T05:51:03.751Z,8.69
2023-04-09T05:52:03.758Z,8.50
2023-04-09T05:53:04.722Z,8.62
2023-04-09T05:54:03.838Z,8.75
2023-04-09T05:55:03.841Z,8.69
2023-04-09T05:56:03.927Z,8.56
2023-04-09T05:57:04.020Z,8.44
2023-04-09T05:58:03.992Z,8.25
2023-04-09T05:59:03.983Z,8.06
2023-04-09T06:00:04.110Z,7.88
2023-04-09T06:01:03.986Z,7.69
2023-04-09T06:02:04.130Z,7.56
2023-04-09T06:03:04.281Z,7.38
2023-04-09T06:04:04.503Z,7.25
2023-04-09T06:05:04.326Z,7.19
2023-04-09T06:06:04.323Z,7.12
2023-04-09T06:07:04.397Z,7.06
2023-04-09T06:08:04.397Z,6.94
2023-04-09T06:09:04.388Z,6.81
2023-04-09T06:10:04.498Z,6.75
2023-04-09T06:11:03.611Z,6.69
2023-04-09T06:12:03.602Z,6.69
2023-04-09T06:13:03.670Z,6.62
2023-04-09T06:14:03.674Z,6.56
2023-04-09T06:15:03.593Z,6.56
2023-04-09T06:16:03.777Z,6.50
2023-04-09T06:17:03.671Z,6.44
2023-04-09T06:18:03.745Z,6.44
2023-04-09T06:19:03.755Z,6.44
2023-04-09T06:20:03.770Z,6.44
2023-04-09T06:21:03.923Z,6.31
2023-04-09T06:22:04.627Z,6.31
2023-04-09T06:23:03.834Z,6.38
2023-04-09T06:24:03.828Z,6.38
2023-04-09T06:25:03.912Z,6.38
2023-04-09T06:26:04.005Z,6.38
2023-04-09T06:27:03.920Z,6.38
2023-04-09T06:28:04.000Z,6.44
2023-04-09T06:29:03.999Z,6.44
2023-04-09T06:30:03.925Z,6.50
2023-04-09T06:31:04.023Z,6.50
2023-04-09T06:32:03.995Z,6.44
2023-04-09T06:33:03.945Z,6.62
2023-04-09T06:34:04.084Z,7.12
2023-04-09T06:35:04.080Z,7.31
2023-04-09T06:36:04.023Z,7.50
2023-04-09T06:37:04.077Z,7.56
2023-04-09T06:38:04.173Z,7.62
2023-04-09T06:39:04.164Z,7.81
2023-04-09T06:40:04.161Z,7.94
2023-04-09T06:41:04.470Z,8.06
2023-04-09T06:42:04.340Z,8.19
2023-04-09T06:43:04.320Z,8.25
2023-04-09T06:44:04.401Z,8.19
2023-04-09T06:45:04.335Z,8.25
2023-04-09T06:46:03.540Z,8.25
2023-04-09T06:47:03.589Z,8.25
2023-04-09T06:48:03.753Z,8.25
2023-04-09T06:49:03.591Z,8.12
2023-04-09T06:50:03.600Z,8.06
2023-04-09T06:51:03.680Z,7.94
2023-04-09T06:52:03.615Z,7.88
2023-04-09T06:53:03.588Z,7.81
2023-04-09T06:54:03.589Z,7.81
2023-04-09T06:55:03.766Z,7.88
2023-04-09T06:56:03.666Z,7.81
2023-04-09T06:57:03.672Z,7.88
2023-04-09T06:58:03.760Z,7.88
2023-04-09T06:59:03.670Z,8.00
2023-04-09T07:00:03.686Z,8.12
2023-04-09T07:01:03.824Z,8.19
2023-04-09T07:02:03.847Z,8.31
2023-04-09T07:03:03.946Z,8.31
2023-04-09T07:04:03.903Z,8.38
2023-04-09T07:05:03.828Z,8.44
2023-04-09T07:06:03.942Z,8.50
2023-04-09T07:07:03.839Z,8.56
2023-04-09T07:08:03.825Z,8.69
2023-04-09T07:09:03.768Z,8.81
2023-04-09T07:10:03.751Z,8.94
2023-04-09T07:11:03.841Z,9.06
2023-04-09T07:12:03.746Z,9.31
2023-04-09T07:13:03.767Z,9.50
2023-04-09T07:14:03.740Z,9.62
2023-04-09T07:15:03.761Z,9.81
2023-04-09T07:16:03.797Z,9.94
2023-04-09T07:17:03.833Z,10.06
2023-04-09T07:18:03.868Z,10.25
2023-04-09T07:19:03.908Z,10.38
2023-04-09T07:20:04.010Z,10.50
2023-04-09T07:21:04.378Z,10.62
2023-04-09T07:22:04.174Z,10.69
2023-04-09T07:23:04.244Z,10.81
2023-04-09T07:24:04.158Z,10.94
2023-04-09T07:25:04.186Z,11.00
2023-04-09T07:26:04.159Z,11.12
2023-04-09T07:27:04.157Z,11.25
2023-04-09T07:28:04.315Z,11.44
2023-04-09T07:29:04.314Z,11.62
2023-04-09T07:30:04.241Z,11.81
2023-04-09T07:31:04.360Z,11.88
2023-04-09T07:32:04.322Z,12.00
2023-04-09T07:33:04.360Z,12.19
2023-04-09T07:34:04.479Z,12.31
2023-04-09T07:35:04.490Z,12.44
2023-04-09T07:36:04.472Z,12.50
2023-04-09T07:37:04.399Z,12.62
2023-04-09T07:38:04.314Z,12.75
2023-04-09T07:39:03.433Z,12.88
2023-04-09T07:40:03.507Z,13.00
2023-04-09T07:41:03.515Z,13.12
2023-04-09T07:42:03.603Z,13.25
2023-04-09T07:43:03.610Z,13.25
2023-04-09T07:44:03.605Z,13.38
2023-04-09T07:45:03.615Z,13.38
2023-04-09T07:46:03.672Z,13.69
2023-04-09T07:47:03.799Z,13.75
2023-04-09T07:48:03.941Z,13.94
2023-04-09T07:49:03.828Z,14.00
2023-04-09T07:50:03.838Z,14.19
2023-04-09T07:51:03.843Z,14.25
2023-04-09T07:52:03.871Z,14.25
2023-04-09T07:53:03.773Z,14.25
2023-04-09T07:54:03.864Z,14.31
2023-04-09T07:55:03.921Z,14.44
2023-04-09T07:56:03.860Z,14.56
2023-04-09T07:57:03.878Z,14.56
2023-04-09T07:58:03.755Z,14.69
2023-04-09T07:59:03.850Z,14.81
2023-04-09T08:00:04.006Z,14.88
2023-04-09T08:01:04.240Z,14.81
2023-04-09T08:02:04.369Z,14.81
2023-04-09T08:03:04.334Z,14.81
2023-04-09T08:04:04.413Z,14.88
2023-04-09T08:05:04.387Z,15.06
2023-04-09T08:06:04.396Z,15.06
2023-04-09T08:07:03.445Z,15.12
2023-04-09T08:08:03.677Z,15.06
2023-04-09T08:09:03.748Z,15.12
2023-04-09T08:10:03.668Z,15.12
2023-04-09T08:11:03.780Z,15.06
2023-04-09T08:12:03.852Z,15.19
2023-04-09T08:13:03.845Z,15.25
2023-04-09T08:14:03.924Z,15.31
2023-04-09T08:15:03.844Z,15.31
2023-04-09T08:16:04.124Z,15.25
2023-04-09T08:17:03.850Z,15.25
2023-04-09T08:18:03.898Z,15.25
2023-04-09T08:19:03.752Z,15.25
2023-04-09T08:20:03.847Z,15.38
2023-04-09T08:21:03.759Z,15.38
2023-04-09T08:22:04.024Z,15.31
2023-04-09T08:23:03.924Z,15.19
2023-04-09T08:24:03.840Z,15.25
2023-04-09T08:25:03.845Z,15.31
2023-04-09T08:26:03.867Z,15.44
2023-04-09T08:27:03.999Z,15.44
2023-04-09T08:28:04.082Z,15.62
2023-04-09T08:29:04.084Z,15.75
2023-04-09T08:30:04.193Z,15.75
2023-04-09T08:31:04.153Z,15.62
2023-04-09T08:32:04.220Z,15.62
2023-04-09T08:33:04.274Z,15.69
2023-04-09T08:34:04.333Z,15.69
2023-04-09T08:35:04.402Z,15.69
2023-04-09T08:36:03.618Z,15.88
2023-04-09T08:37:03.702Z,16.00
2023-04-09T08:38:03.624Z,15.88
2023-04-09T08:39:03.801Z,15.75
2023-04-09T08:40:03.701Z,15.62
2023-04-09T08:41:03.995Z,15.75
2023-04-09T08:42:04.109Z,15.69
2023-04-09T08:43:04.075Z,15.62
2023-04-09T08:44:04.096Z,15.62
2023-04-09T08:45:04.240Z,15.56
2023-04-09T08:46:04.359Z,15.69
2023-04-09T08:47:04.405Z,15.75
2023-04-09T08:48:03.668Z,15.62
2023-04-09T08:49:03.696Z,15.56
2023-04-09T08:50:03.623Z,15.38
2023-04-09T08:51:03.775Z,15.31
2023-04-09T08:52:03.851Z,15.31
2023-04-09T08:53:03.909Z,15.19
2023-04-09T08:54:04.944Z,15.06
2023-04-09T08:55:03.894Z,15.06
2023-04-09T08:56:03.845Z,15.06
2023-04-09T08:57:03.766Z,15.00
2023-04-09T08:58:03.966Z,15.06
2023-04-09T08:59:03.836Z,15.06
2023-04-09T09:00:03.835Z,15.00
2023-04-09T09:01:03.946Z,14.94
2023-04-09T09:02:04.035Z,14.88
2023-04-09T09:03:04.055Z,14.88
2023-04-09T09:04:04.140Z,14.88
2023-04-09T09:05:03.910Z,14.75
2023-04-09T09:06:04.244Z,14.69
2023-04-09T09:07:04.165Z,14.62
2023-04-09T09:08:04.167Z,14.62
2023-04-09T09:09:04.261Z,14.69
2023-04-09T09:10:04.248Z,14.75
2023-04-09T09:11:04.316Z,14.88
2023-04-09T09:12:04.408Z,15.00
2023-04-09T09:13:04.470Z,15.00
2023-04-09T09:14:03.531Z,15.00
2023-04-09T09:15:04.404Z,14.94
2023-04-09T09:16:04.475Z,15.00
2023-04-09T09:17:03.581Z,15.06
2023-04-09T09:18:03.614Z,15.06
2023-04-09T09:19:03.621Z,14.88
2023-04-09T09:20:03.611Z,14.81
2023-04-09T09:21:03.665Z,14.75
2023-04-09T09:22:03.759Z,14.81
2023-04-09T09:23:03.902Z,14.75
2023-04-09T09:24:03.982Z,14.75
2023-04-09T09:25:03.989Z,14.69
2023-04-09T09:26:03.995Z,14.56
2023-04-09T09:27:03.970Z,14.44
2023-04-09T09:28:04.001Z,14.25
2023-04-09T09:29:03.909Z,14.19
2023-04-09T09:30:03.999Z,14.19
2023-04-09T09:31:03.950Z,14.12
2023-04-09T09:32:03.908Z,14.06
2023-04-09T09:33:03.916Z,14.00
2023-04-09T09:34:03.922Z,13.94
2023-04-09T09:35:03.950Z,13.94
2023-04-09T09:36:03.921Z,14.25
2023-04-09T09:37:03.921Z,14.44
2023-04-09T09:38:03.922Z,14.69
2023-04-09T09:39:04.003Z,14.56
2023-04-09T09:40:04.156Z,14.44
2023-04-09T09:41:04.181Z,14.50
2023-04-09T09:42:04.146Z,14.56
2023-04-09T09:43:04.230Z,14.56
2023-04-09T09:44:04.147Z,14.50
2023-04-09T09:45:04.309Z,14.44
2023-04-09T09:46:04.330Z,14.31
2023-04-09T09:47:04.398Z,14.19
2023-04-09T09:48:03.459Z,14.12
2023-04-09T09:49:03.589Z,14.06
2023-04-09T09:50:03.603Z,14.06
2023-04-09T09:51:03.669Z,13.94
2023-04-09T09:52:03.680Z,13.88
2023-04-09T09:53:03.668Z,13.94
2023-04-09T09:54:03.678Z,14.00
2023-04-09T09:55:03.677Z,14.06
2023-04-09T09:56:03.607Z,14.06
2023-04-09T09:57:03.603Z,14.12
2023-04-09T09:58:03.609Z,14.06
2023-04-09T09:59:03.523Z,14.12
2023-04-09T10:00:03.676Z,14.00
2023-04-09T10:01:03.731Z,14.06
2023-04-09T10:02:03.777Z,14.25
2023-04-09T10:03:04.047Z,14.31
2023-04-09T10:04:03.967Z,14.38
2023-04-09T10:05:03.994Z,14.25
2023-04-09T10:06:04.085Z,14.12
2023-04-09T10:07:04.388Z,14.19
2023-04-09T10:08:04.245Z,14.06
2023-04-09T10:09:04.330Z,14.31
2023-04-09T10:10:04.394Z,14.12
2023-04-09T10:11:03.518Z,14.06
2023-04-09T10:12:03.622Z,14.00
2023-04-09T10:13:03.620Z,13.88
2023-04-09T10:14:03.529Z,13.81
2023-04-09T10:15:03.514Z,13.69
2023-04-09T10:16:03.740Z,13.69
2023-04-09T10:17:04.510Z,13.56
2023-04-09T10:18:03.720Z,13.56
2023-04-09T10:19:03.675Z,13.50
2023-04-09T10:20:03.601Z,13.69
2023-04-09T10:21:03.602Z,13.62
2023-04-09T10:22:03.677Z,13.88
2023-04-09T10:23:03.589Z,13.94
2023-04-09T10:24:03.674Z,13.88
2023-04-09T10:25:03.830Z,13.88
2023-04-09T10:26:03.753Z,13.81
2023-04-09T10:27:03.663Z,13.81
2023-04-09T10:28:03.667Z,13.81
2023-04-09T10:29:03.627Z,14.00
2023-04-09T10:30:03.598Z,13.94
2023-04-09T10:31:03.670Z,13.81
2023-04-09T10:32:03.753Z,13.81
2023-04-09T10:33:03.602Z,13.75
2023-04-09T10:34:03.583Z,13.69
2023-04-09T10:35:03.843Z,13.69
2023-04-09T10:36:03.979Z,13.75
2023-04-09T10:37:03.914Z,13.88
2023-04-09T10:38:03.832Z,13.88
2023-04-09T10:39:03.841Z,13.81
2023-04-09T10:40:03.911Z,13.75
2023-04-09T10:41:03.833Z,13.75
2023-04-09T10:42:04.166Z,13.94
2023-04-09T10:43:04.179Z,14.00
2023-04-09T10:44:04.156Z,14.12
2023-04-09T10:45:04.241Z,14.12
2023-04-09T10:46:04.403Z,14.19
2023-04-09T10:47:04.485Z,14.00
2023-04-09T10:48:04.451Z,14.00
2023-04-09T10:49:03.508Z,14.00
2023-04-09T10:50:03.616Z,13.94
2023-04-09T10:51:03.530Z,13.88
2023-04-09T10:52:04.486Z,13.88
2023-04-09T10:53:04.469Z,13.94
2023-04-09T10:54:03.507Z,13.88
2023-04-09T10:55:03.514Z,13.81
2023-04-09T10:56:03.508Z,13.81
2023-04-09T10:57:03.666Z,13.81
2023-04-09T10:58:03.587Z,13.81
2023-04-09T10:59:03.593Z,13.94
2023-04-09T11:00:03.836Z,13.88
2023-04-09T11:01:03.743Z,13.88
2023-04-09T11:02:03.863Z,13.81
2023-04-09T11:03:03.996Z,13.88
2023-04-09T11:04:03.759Z,14.06
2023-04-09T11:05:03.822Z,14.31
2023-04-09T11:06:03.937Z,14.25
2023-04-09T11:07:03.994Z,14.25
2023-04-09T11:08:05.044Z,14.19
2023-04-09T11:09:04.174Z,14.12
2023-04-09T11:10:04.240Z,14.00
2023-04-09T11:11:04.150Z,13.88
2023-04-09T11:12:04.242Z,13.75
2023-04-09T11:13:04.178Z,13.88
2023-04-09T11:14:04.227Z,13.88
2023-04-09T11:15:04.319Z,13.88
2023-04-09T11:16:04.484Z,13.81
2023-04-09T11:17:04.399Z,13.81
2023-04-09T11:18:04.434Z,13.75
2023-04-09T11:19:03.515Z,13.81
2023-04-09T11:20:03.442Z,13.75
2023-04-09T11:21:03.588Z,13.75
2023-04-09T11:22:03.518Z,13.75
2023-04-09T11:23:03.533Z,13.81
2023-04-09T11:24:04.547Z,13.81
2023-04-09T11:25:04.392Z,13.81
2023-04-09T11:26:03.547Z,13.81
2023-04-09T11:27:03.606Z,13.81
2023-04-09T11:28:03.668Z,13.88
2023-04-09T11:29:03.590Z,13.88
2023-04-09T11:30:03.590Z,13.94
2023-04-09T11:31:03.632Z,14.00
2023-04-09T11:32:03.512Z,14.00
2023-04-09T11:33:04.342Z,13.94
2023-04-09T11:34:04.474Z,14.00
2023-04-09T11:35:04.479Z,14.06
2023-04-09T11:36:03.544Z,14.06
2023-04-09T11:37:03.594Z,14.06
2023-04-09T11:38:03.682Z,14.06
2023-04-09T11:39:03.674Z,14.06
2023-04-09T11:40:04.235Z,14.12
2023-04-09T11:41:04.306Z,14.19
2023-04-09T11:42:04.602Z,14.19
2023-04-09T11:43:03.537Z,14.50
2023-04-09T11:44:04.077Z,14.50
2023-04-09T11:45:04.013Z,14.50
2023-04-09T11:46:04.067Z,14.44
2023-04-09T11:47:04.243Z,14.38
2023-04-09T11:48:04.135Z,14.44
2023-04-09T11:49:04.066Z,14.44
2023-04-09T11:50:03.753Z,14.31
2023-04-09T11:51:03.836Z,14.31
2023-04-09T11:52:03.820Z,14.31
2023-04-09T11:53:03.928Z,14.44
2023-04-09T11:54:03.918Z,14.44
2023-04-09T11:55:03.831Z,14.50
2023-04-09T11:56:03.825Z,14.38
2023-04-09T11:57:03.905Z,14.38
2023-04-09T11:58:03.924Z,14.38
2023-04-09T11:59:03.983Z,14.31
2023-04-09T12:00:05.280Z,14.25
2023-04-09T12:01:03.926Z,14.25
2023-04-09T12:02:04.111Z,14.19
2023-04-09T12:03:04.272Z,14.19
2023-04-09T12:04:04.217Z,14.25
2023-04-09T12:05:04.118Z,14.31
2023-04-09T12:06:04.230Z,14.31
2023-04-09T12:07:04.164Z,14.31
2023-04-09T12:08:04.227Z,14.38
2023-04-09T12:09:04.324Z,14.38
2023-04-09T12:10:04.392Z,14.44
2023-04-09T12:11:04.387Z,14.44
2023-04-09T12:12:04.470Z,14.44
2023-04-09T12:13:04.482Z,14.56
2023-04-09T12:14:03.517Z,14.62
2023-04-09T12:15:04.548Z,14.75
2023-04-09T12:16:04.588Z,14.75
2023-04-09T12:17:04.489Z,14.81
2023-04-09T12:18:03.835Z,15.00
2023-04-09T12:19:03.677Z,14.94
2023-04-09T12:20:03.841Z,15.12
2023-04-09T12:21:03.828Z,15.31
2023-04-09T12:22:03.914Z,15.44
2023-04-09T12:23:03.838Z,15.50
2023-04-09T12:24:03.768Z,15.62
2023-04-09T12:25:03.834Z,15.62
2023-04-09T12:26:03.992Z,15.62
2023-04-09T12:27:04.002Z,15.50
2023-04-09T12:28:04.229Z,15.44
2023-04-09T12:29:04.225Z,15.56
2023-04-09T12:30:04.224Z,15.69
2023-04-09T12:31:04.248Z,15.81
2023-04-09T12:32:04.214Z,15.75
2023-04-09T12:33:04.259Z,15.75
2023-04-09T12:34:04.239Z,15.56
2023-04-09T12:35:04.241Z,15.44
2023-04-09T12:36:04.170Z,15.38
2023-04-09T12:37:04.138Z,15.31
2023-04-09T12:38:04.305Z,15.25
2023-04-09T12:39:04.312Z,15.25
2023-04-09T12:40:04.233Z,15.12
2023-04-09T12:41:04.311Z,15.12
2023-04-09T12:42:04.408Z,15.00
2023-04-09T12:43:04.400Z,14.88
2023-04-09T12:44:04.384Z,14.88
2023-04-09T12:45:04.492Z,14.88
2023-04-09T12:46:04.514Z,14.88
2023-04-09T12:47:04.479Z,14.88
2023-04-09T12:48:03.553Z,14.88
2023-04-09T12:49:03.684Z,14.88
2023-04-09T12:50:03.676Z,14.81
2023-04-09T12:51:03.742Z,14.81
2023-04-09T12:52:03.843Z,14.69
2023-04-09T12:53:03.905Z,14.75
2023-04-09T12:54:03.822Z,14.75
2023-04-09T12:55:03.901Z,14.88
2023-04-09T12:56:03.905Z,15.06
2023-04-09T12:57:03.925Z,15.19
2023-04-09T12:58:03.998Z,15.25
2023-04-09T12:59:03.927Z,15.25
2023-04-09T13:00:03.902Z,15.25
2023-04-09T13:01:04.103Z,15.38
2023-04-09T13:02:04.164Z,15.50
2023-04-09T13:03:04.072Z,15.50
2023-04-09T13:04:04.085Z,15.44
2023-04-09T13:05:03.982Z,15.38
2023-04-09T13:06:04.088Z,15.38